Time,TemperatureF,DewpointF,PressureIn,WindDirection,WindDirectionDegrees,WindSpeedMPH,WindSpeedGustMPH,Humidity,HourlyPrecipIn,Conditions,Clouds,dailyrainin,SoftwareType,DateUTC
2013-01-23 00:05:00,35.8,26.3,30.24,NW,323,0.0,0.0,68,0.00,,,0.00,Wunderground v.1.15,2013-01-23 05:05:00,
2013-01-23 00:10:00,35.5,26.0,30.24,NW,323,0.0,0.0,68,0.00,,,0.00,Wunderground v.1.15,2013-01-23 05:10:00,
2013-01-23 00:15:00,35.4,26.2,30.24,NW,323,0.0,0.0,69,0.00,,,0.00,Wunderground v.1.15,2013-01-23 05:15:00,
2013-01-23 00:25:00,35.1,24.9,30.24,NW,309,0.0,2.0,66,0.00,,,0.00,Wunderground v.1.15,2013-01-23 05:25:00,
2013-01-23 00:30:00,35.1,24.1,30.24,NW,309,1.0,1.0,64,0.00,,,0.00,Wunderground v.1.15,2013-01-23 05:30:00,
2013-01-23 00:35:00,35.2,24.6,30.24,NW,314,0.0,1.0,65,0.00,,,0.00,Wunderground v.1.15,2013-01-23 05:35:00,
2013-01-23 00:40:00,35.2,24.2,30.24,NW,314,0.0,0.0,64,0.00,,,0.00,Wunderground v.1.15,2013-01-23 05:40:00,
2013-01-23 00:50:00,35.1,25.2,30.24,NW,317,0.0,0.0,67,0.00,,,0.00,Wunderground v.1.15,2013-01-23 05:50:00,
2013-01-23 01:00:00,34.6,25.8,30.24,NW,317,0.0,0.0,70,0.00,,,0.00,Wunderground v.1.15,2013-01-23 06:00:00,
2013-01-23 01:10:00,34.1,26.0,30.23,NW,317,0.0,0.0,72,0.00,,,0.00,Wunderground v.1.15,2013-01-23 06:10:00,
2013-01-23 01:15:00,33.8,26.1,30.23,NW,317,0.0,0.0,73,0.00,,,0.00,Wunderground v.1.15,2013-01-23 06:15:00,
2013-01-23 01:25:00,33.6,26.5,30.24,NW,315,0.0,0.0,75,0.00,,,0.00,Wunderground v.1.15,2013-01-23 06:25:00,
2013-01-23 01:35:00,33.9,27.1,30.24,NW,315,0.0,0.0,76,0.00,,,0.00,Wunderground v.1.15,2013-01-23 06:35:00,
2013-01-23 01:45:00,33.9,27.1,30.24,NW,315,0.0,0.0,76,0.00,,,0.00,Wunderground v.1.15,2013-01-23 06:45:00,
2013-01-23 01:55:00,33.7,27.6,30.23,NW,315,0.0,0.0,78,0.00,,,0.00,Wunderground v.1.15,2013-01-23 06:55:00,
2013-01-23 02:05:00,33.7,27.9,30.24,NW,320,0.0,0.0,79,0.00,,,0.00,Wunderground v.1.15,2013-01-23 07:05:00,
2013-01-23 02:10:00,33.7,27.9,30.24,NW,311,0.0,0.0,79,0.00,,,0.00,Wunderground v.1.15,2013-01-23 07:10:00,
2013-01-23 02:20:00,33.7,28.2,30.24,WNW,301,1.0,1.0,80,0.00,,,0.00,Wunderground v.1.15,2013-01-23 07:20:00,
2013-01-23 02:30:00,33.9,28.4,30.25,NW,319,0.0,0.0,80,0.00,,,0.00,Wunderground v.1.15,2013-01-23 07:30:00,
2013-01-23 02:35:00,33.9,28.4,30.25,NW,323,0.0,0.0,80,0.00,,,0.00,Wunderground v.1.15,2013-01-23 07:35:00,
2013-01-23 02:45:00,33.9,29.0,30.25,NW,319,0.0,1.0,82,0.00,,,0.00,Wunderground v.1.15,2013-01-23 07:45:00,
2013-01-23 02:55:00,33.7,28.8,30.25,NNW,329,0.0,1.0,82,0.00,,,0.00,Wunderground v.1.15,2013-01-23 07:55:00,
2013-01-23 03:00:00,33.6,28.4,30.25,NNE,15,0.0,0.0,81,0.00,,,0.00,Wunderground v.1.15,2013-01-23 08:00:00,
2013-01-23 03:10:00,33.7,27.9,30.25,NNW,337,0.0,0.0,79,0.00,,,0.00,Wunderground v.1.15,2013-01-23 08:10:00,
2013-01-23 03:15:00,33.7,27.9,30.25,NNE,14,0.0,0.0,79,0.00,,,0.00,Wunderground v.1.15,2013-01-23 08:15:00,
2013-01-23 03:25:00,33.6,27.2,30.25,NE,43,0.0,0.0,77,0.00,,,0.00,Wunderground v.1.15,2013-01-23 08:25:00,
2013-01-23 03:30:00,33.7,27.3,30.26,NNE,30,0.0,0.0,77,0.00,,,0.00,Wunderground v.1.15,2013-01-23 08:30:00,
2013-01-23 03:40:00,33.4,26.6,30.26,NNE,28,0.0,0.0,76,0.00,,,0.00,Wunderground v.1.15,2013-01-23 08:40:00,
2013-01-23 03:50:00,33.0,25.3,30.26,NNE,12,0.0,0.0,73,0.00,,,0.00,Wunderground v.1.15,2013-01-23 08:50:00,
2013-01-23 04:00:00,32.7,24.7,30.26,North,9,0.0,0.0,72,0.00,,,0.00,Wunderground v.1.15,2013-01-23 09:00:00,
2013-01-23 04:10:00,32.6,23.9,30.26,NE,53,0.0,0.0,70,0.00,,,0.00,Wunderground v.1.15,2013-01-23 09:10:00,
2013-01-23 04:20:00,32.7,24.0,30.26,NNE,31,0.0,0.0,70,0.00,,,0.00,Wunderground v.1.15,2013-01-23 09:20:00,
2013-01-23 04:25:00,32.5,23.5,30.26,NE,38,0.0,0.0,69,0.00,,,0.00,Wunderground v.1.15,2013-01-23 09:25:00,
2013-01-23 04:35:00,32.4,22.7,30.26,NE,44,0.0,0.0,67,0.00,,,0.00,Wunderground v.1.15,2013-01-23 09:35:00,
2013-01-23 04:45:00,32.3,22.2,30.26,NE,45,0.0,0.0,66,0.00,,,0.00,Wunderground v.1.15,2013-01-23 09:45:00,
2013-01-23 04:50:00,32.1,22.0,30.26,NE,38,0.0,0.0,66,0.00,,,0.00,Wunderground v.1.15,2013-01-23 09:50:00,
2013-01-23 04:55:00,31.9,21.1,30.27,NE,49,0.0,0.0,64,0.00,,,0.00,Wunderground v.1.15,2013-01-23 09:55:00,
2013-01-23 05:05:00,31.9,20.7,30.27,NE,41,0.0,0.0,63,0.00,,,0.00,Wunderground v.1.15,2013-01-23 10:05:00,
2013-01-23 05:10:00,31.6,19.7,30.27,NE,39,0.0,0.0,61,0.00,,,0.00,Wunderground v.1.15,2013-01-23 10:10:00,
2013-01-23 05:15:00,31.5,19.6,30.28,NE,42,0.0,0.0,61,0.00,,,0.00,Wunderground v.1.15,2013-01-23 10:15:00,
2013-01-23 05:25:00,31.2,17.3,30.28,NE,53,0.0,0.0,56,0.00,,,0.00,Wunderground v.1.15,2013-01-23 10:25:00,
2013-01-23 05:35:00,31.0,16.7,30.29,NE,34,0.0,0.0,55,0.00,,,0.00,Wunderground v.1.15,2013-01-23 10:35:00,
2013-01-23 05:45:00,31.1,17.2,30.29,ENE,77,0.0,0.0,56,0.00,,,0.00,Wunderground v.1.15,2013-01-23 10:45:00,
2013-01-23 05:55:00,31.0,15.4,30.30,ENE,59,0.0,0.0,52,0.00,,,0.00,Wunderground v.1.15,2013-01-23 10:55:00,
2013-01-23 06:05:00,30.9,14.9,30.30,NE,52,0.0,0.0,51,0.00,,,0.00,Wunderground v.1.15,2013-01-23 11:05:00,
2013-01-23 06:15:00,30.8,14.3,30.30,NE,40,0.0,0.0,50,0.00,,,0.00,Wunderground v.1.15,2013-01-23 11:15:00,
2013-01-23 06:25:00,30.7,13.8,30.31,ENE,67,0.0,0.0,49,0.00,,,0.00,Wunderground v.1.15,2013-01-23 11:25:00,
2013-01-23 06:35:00,30.8,13.9,30.31,ENE,60,0.0,0.0,49,0.00,,,0.00,Wunderground v.1.15,2013-01-23 11:35:00,
2013-01-23 06:45:00,30.9,13.5,30.31,NE,40,0.0,0.0,48,0.00,,,0.00,Wunderground v.1.15,2013-01-23 11:45:00,
2013-01-23 06:50:00,30.8,12.4,30.32,East,98,0.0,0.0,46,0.00,,,0.00,Wunderground v.1.15,2013-01-23 11:50:00,
2013-01-23 07:00:00,30.7,11.3,30.32,East,84,0.0,0.0,44,0.00,,,0.00,Wunderground v.1.15,2013-01-23 12:00:00,
2013-01-23 07:05:00,30.7,11.3,30.32,NNE,21,0.0,0.0,44,0.00,,,0.00,Wunderground v.1.15,2013-01-23 12:05:00,
2013-01-23 07:15:00,30.5,10.1,30.33,NE,42,0.0,0.0,42,0.00,,,0.00,Wunderground v.1.15,2013-01-23 12:15:00,
2013-01-23 07:20:00,30.6,10.7,30.33,NE,42,0.0,0.0,43,0.00,,,0.00,Wunderground v.1.15,2013-01-23 12:20:00,
2013-01-23 07:25:00,30.5,10.1,30.33,NE,44,0.0,0.0,42,0.00,,,0.00,Wunderground v.1.15,2013-01-23 12:25:00,
2013-01-23 07:35:00,30.9,10.5,30.33,NE,55,1.0,1.0,42,0.00,,,0.00,Wunderground v.1.15,2013-01-23 12:35:00,
2013-01-23 07:45:00,31.3,10.8,30.34,North,5,0.0,1.0,42,0.00,,,0.00,Wunderground v.1.15,2013-01-23 12:45:00,
2013-01-23 07:55:00,31.6,12.2,30.34,NE,44,1.0,5.0,44,0.00,,,0.00,Wunderground v.1.15,2013-01-23 12:55:00,
2013-01-23 08:05:00,32.1,11.0,30.34,ENE,63,0.0,1.0,41,0.00,,,0.00,Wunderground v.1.15,2013-01-23 13:05:00,
2013-01-23 08:15:00,32.6,11.5,30.34,NNE,32,1.0,1.0,41,0.00,,,0.00,Wunderground v.1.15,2013-01-23 13:15:00,
2013-01-23 08:20:00,32.8,12.7,30.34,ENE,71,0.0,2.0,43,0.00,,,0.00,Wunderground v.1.15,2013-01-23 13:20:00,
2013-01-23 08:30:00,33.5,12.8,30.34,ENE,78,0.0,0.0,42,0.00,,,0.00,Wunderground v.1.15,2013-01-23 13:30:00,
2013-01-23 08:40:00,34.1,14.4,30.34,NE,35,0.0,0.0,44,0.00,,,0.00,Wunderground v.1.15,2013-01-23 13:40:00,
2013-01-23 08:50:00,34.7,15.5,30.35,ENE,60,0.0,0.0,45,0.00,,,0.00,Wunderground v.1.15,2013-01-23 13:50:00,
2013-01-23 09:00:00,34.7,13.9,30.35,NNE,22,0.0,0.0,42,0.00,,,0.00,Wunderground v.1.15,2013-01-23 14:00:00,
2013-01-23 09:10:00,35.3,13.3,30.36,ENE,65,0.0,0.0,40,0.00,,,0.00,Wunderground v.1.15,2013-01-23 14:10:00,
2013-01-23 09:20:00,35.6,15.3,30.36,NNE,31,0.0,0.0,43,0.00,,,0.00,Wunderground v.1.15,2013-01-23 14:20:00,
2013-01-23 09:30:00,36.2,17.9,30.36,ENE,69,1.0,1.0,47,0.00,,,0.00,Wunderground v.1.15,2013-01-23 14:30:00,
2013-01-23 09:40:00,36.9,17.0,30.37,NE,52,0.0,0.0,44,0.00,,,0.00,Wunderground v.1.15,2013-01-23 14:40:00,
2013-01-23 09:50:00,37.6,20.1,30.37,North,10,0.0,0.0,49,0.00,,,0.00,Wunderground v.1.15,2013-01-23 14:50:00,
2013-01-23 10:00:00,37.7,18.8,30.37,North,360,0.0,0.0,46,0.00,,,0.00,Wunderground v.1.15,2013-01-23 15:00:00,
2013-01-23 10:10:00,37.9,19.4,30.37,NE,54,0.0,0.0,47,0.00,,,0.00,Wunderground v.1.15,2013-01-23 15:10:00,
2013-01-23 10:15:00,38.3,17.2,30.37,ENE,71,0.0,0.0,42,0.00,,,0.00,Wunderground v.1.15,2013-01-23 15:15:00,
2013-01-23 10:25:00,38.5,17.9,30.37,ENE,70,0.0,0.0,43,0.00,,,0.00,Wunderground v.1.15,2013-01-23 15:25:00,
2013-01-23 10:35:00,39.3,14.5,30.38,NE,51,0.0,0.0,36,0.00,,,0.00,Wunderground v.1.15,2013-01-23 15:35:00,
2013-01-23 10:45:00,39.9,18.1,30.37,East,96,0.0,0.0,41,0.00,,,0.00,Wunderground v.1.15,2013-01-23 15:45:00,
2013-01-23 10:50:00,39.4,15.9,30.37,ESE,114,0.0,0.0,38,0.00,,,0.00,Wunderground v.1.15,2013-01-23 15:50:00,
2013-01-23 11:00:00,39.6,17.2,30.37,ESE,109,0.0,0.0,40,0.00,,,0.00,Wunderground v.1.15,2013-01-23 16:00:00,
2013-01-23 11:05:00,40.0,19.3,30.37,East,84,0.0,0.0,43,0.00,,,0.00,Wunderground v.1.15,2013-01-23 16:05:00,
2013-01-23 11:15:00,39.6,17.2,30.36,East,89,1.0,3.0,40,0.00,,,0.00,Wunderground v.1.15,2013-01-23 16:15:00,
2013-01-23 11:20:00,39.7,17.9,30.36,East,90,0.0,0.0,41,0.00,,,0.00,Wunderground v.1.15,2013-01-23 16:20:00,
2013-01-23 11:30:00,40.2,17.2,30.36,East,90,0.0,0.0,39,0.00,,,0.00,Wunderground v.1.15,2013-01-23 16:30:00,
2013-01-23 11:40:00,40.8,18.9,30.35,ENE,76,0.0,0.0,41,0.00,,,0.00,Wunderground v.1.15,2013-01-23 16:40:00,
2013-01-23 11:50:00,41.1,19.7,30.35,ESE,109,0.0,0.0,42,0.00,,,0.00,Wunderground v.1.15,2013-01-23 16:50:00,
2013-01-23 12:00:00,39.8,16.2,30.34,ESE,114,0.0,0.0,38,0.00,,,0.00,Wunderground v.1.15,2013-01-23 17:00:00,
2013-01-23 12:10:00,40.2,17.2,30.34,SE,129,0.0,0.0,39,0.00,,,0.00,Wunderground v.1.15,2013-01-23 17:10:00,
2013-01-23 12:20:00,40.2,17.8,30.34,ESE,119,0.0,0.0,40,0.00,,,0.00,Wunderground v.1.15,2013-01-23 17:20:00,
2013-01-23 12:30:00,39.3,17.5,30.33,SE,131,0.0,0.0,41,0.00,,,0.00,Wunderground v.1.15,2013-01-23 17:30:00,
2013-01-23 12:40:00,39.8,19.6,30.33,SE,133,0.0,0.0,44,0.00,,,0.00,Wunderground v.1.15,2013-01-23 17:40:00,
2013-01-23 12:50:00,40.4,19.1,30.32,SE,133,0.0,0.0,42,0.00,,,0.00,Wunderground v.1.15,2013-01-23 17:50:00,
2013-01-23 12:55:00,41.3,21.0,30.32,ESE,121,0.0,0.0,44,0.00,,,0.00,Wunderground v.1.15,2013-01-23 17:55:00,
2013-01-23 13:05:00,41.8,20.4,30.32,SE,128,0.0,0.0,42,0.00,,,0.00,Wunderground v.1.15,2013-01-23 18:05:00,
2013-01-23 13:10:00,40.7,19.4,30.31,ESE,106,0.0,0.0,42,0.00,,,0.00,Wunderground v.1.15,2013-01-23 18:10:00,
2013-01-23 13:20:00,40.8,20.5,30.30,SE,126,0.0,0.0,44,0.00,,,0.00,Wunderground v.1.15,2013-01-23 18:20:00,
2013-01-23 13:25:00,40.9,17.8,30.30,SE,132,0.0,0.0,39,0.00,,,0.00,Wunderground v.1.15,2013-01-23 18:25:00,
2013-01-23 13:35:00,41.2,20.9,30.29,South,171,0.0,0.0,44,0.00,,,0.00,Wunderground v.1.15,2013-01-23 18:35:00,
2013-01-23 13:45:00,41.3,21.0,30.28,SE,144,0.0,0.0,44,0.00,,,0.00,Wunderground v.1.15,2013-01-23 18:45:00,
2013-01-23 13:55:00,41.3,22.1,30.28,SE,125,0.0,0.0,46,0.00,,,0.00,Wunderground v.1.15,2013-01-23 18:55:00,
2013-01-23 14:05:00,41.5,22.2,30.27,SE,142,0.0,0.0,46,0.00,,,0.00,Wunderground v.1.15,2013-01-23 19:05:00,
2013-01-23 14:15:00,41.5,18.4,30.27,SE,138,0.0,0.0,39,0.00,,,0.00,Wunderground v.1.15,2013-01-23 19:15:00,
2013-01-23 14:25:00,42.2,22.4,30.27,SSE,166,0.0,0.0,45,0.00,,,0.00,Wunderground v.1.15,2013-01-23 19:25:00,
2013-01-23 14:30:00,41.8,22.5,30.26,SE,141,0.0,0.0,46,0.00,,,0.00,Wunderground v.1.15,2013-01-23 19:30:00,
2013-01-23 14:35:00,41.9,20.4,30.26,SE,144,0.0,0.0,42,0.00,,,0.00,Wunderground v.1.15,2013-01-23 19:35:00,
2013-01-23 14:45:00,42.3,22.4,30.25,SSE,152,0.0,0.0,45,0.00,,,0.00,Wunderground v.1.15,2013-01-23 19:45:00,
2013-01-23 14:55:00,42.2,20.7,30.25,SSE,155,0.0,0.0,42,0.00,,,0.00,Wunderground v.1.15,2013-01-23 19:55:00,
2013-01-23 15:00:00,42.5,21.5,30.25,SE,138,0.0,0.0,43,0.00,,,0.00,Wunderground v.1.15,2013-01-23 20:00:00,
2013-01-23 15:10:00,42.7,23.3,30.24,SE,132,0.0,0.0,46,0.00,,,0.00,Wunderground v.1.15,2013-01-23 20:10:00,
2013-01-23 15:20:00,42.8,20.7,30.25,SSE,147,0.0,0.0,41,0.00,,,0.00,Wunderground v.1.15,2013-01-23 20:20:00,
2013-01-23 15:25:00,42.8,21.3,30.25,SE,146,0.0,0.0,42,0.00,,,0.00,Wunderground v.1.15,2013-01-23 20:25:00,
2013-01-23 15:35:00,43.0,23.1,30.24,South,181,0.0,0.0,45,0.00,,,0.00,Wunderground v.1.15,2013-01-23 20:35:00,
2013-01-23 15:45:00,43.2,21.1,30.25,SSE,147,0.0,0.0,41,0.00,,,0.00,Wunderground v.1.15,2013-01-23 20:45:00,
2013-01-23 15:50:00,43.2,22.2,30.25,SSE,157,0.0,0.0,43,0.00,,,0.00,Wunderground v.1.15,2013-01-23 20:50:00,
2013-01-23 15:55:00,43.3,23.9,30.25,SSE,167,0.0,0.0,46,0.00,,,0.00,Wunderground v.1.15,2013-01-23 20:55:00,
2013-01-23 16:05:00,43.4,21.8,30.25,SE,142,0.0,0.0,42,0.00,,,0.00,Wunderground v.1.15,2013-01-23 21:05:00,
2013-01-23 16:15:00,43.6,23.1,30.25,SE,144,0.0,0.0,44,0.00,,,0.00,Wunderground v.1.15,2013-01-23 21:15:00,
2013-01-23 16:25:00,43.7,22.1,30.25,SSE,160,0.0,0.0,42,0.00,,,0.00,Wunderground v.1.15,2013-01-23 21:25:00,
2013-01-23 16:30:00,43.9,24.4,30.25,SSE,160,0.0,0.0,46,0.00,,,0.00,Wunderground v.1.15,2013-01-23 21:30:00,
2013-01-23 16:40:00,44.0,24.5,30.25,SSE,160,0.0,0.0,46,0.00,,,0.00,Wunderground v.1.15,2013-01-23 21:40:00,
2013-01-23 16:50:00,43.8,24.9,30.24,SE,142,0.0,0.0,47,0.00,,,0.00,Wunderground v.1.15,2013-01-23 21:50:00,
2013-01-23 16:55:00,44.2,26.2,30.25,SSE,157,0.0,0.0,49,0.00,,,0.00,Wunderground v.1.15,2013-01-23 21:55:00,
2013-01-23 17:05:00,44.1,25.6,30.25,South,184,0.0,0.0,48,0.00,,,0.00,Wunderground v.1.15,2013-01-23 22:05:00,
2013-01-23 17:15:00,44.2,27.2,30.24,South,189,0.0,0.0,51,0.00,,,0.00,Wunderground v.1.15,2013-01-23 22:15:00,
2013-01-23 17:25:00,44.0,26.5,30.24,South,179,0.0,0.0,50,0.00,,,0.00,Wunderground v.1.15,2013-01-23 22:25:00,
2013-01-23 17:35:00,43.9,28.3,30.25,SSW,200,0.0,0.0,54,0.00,,,0.00,Wunderground v.1.15,2013-01-23 22:35:00,
2013-01-23 17:45:00,43.8,27.8,30.25,South,173,0.0,0.0,53,0.00,,,0.00,Wunderground v.1.15,2013-01-23 22:45:00,
2013-01-23 17:55:00,43.8,29.5,30.24,South,184,0.0,0.0,57,0.00,,,0.00,Wunderground v.1.15,2013-01-23 22:55:00,
2013-01-23 18:05:00,44.0,29.7,30.24,South,181,0.0,0.0,57,0.00,,,0.00,Wunderground v.1.15,2013-01-23 23:05:00,
2013-01-23 18:10:00,44.1,29.8,30.24,South,183,0.0,0.0,57,0.00,,,0.00,Wunderground v.1.15,2013-01-23 23:10:00,
2013-01-23 18:20:00,44.2,29.9,30.24,SSW,194,0.0,0.0,57,0.00,,,0.00,Wunderground v.1.15,2013-01-23 23:20:00,
2013-01-23 18:30:00,44.3,30.0,30.24,South,185,0.0,0.0,57,0.00,,,0.00,Wunderground v.1.15,2013-01-23 23:30:00,
2013-01-23 18:40:00,44.4,30.5,30.24,South,190,0.0,0.0,58,0.00,,,0.00,Wunderground v.1.15,2013-01-23 23:40:00,
2013-01-23 18:50:00,44.6,31.6,30.24,South,186,0.0,0.0,60,0.00,,,0.00,Wunderground v.1.15,2013-01-23 23:50:00,
2013-01-23 19:00:00,44.8,32.6,30.23,South,171,0.0,0.0,62,0.00,,,0.00,Wunderground v.1.15,2013-01-24 00:00:00,
2013-01-23 19:05:00,44.8,32.6,30.23,South,175,0.0,0.0,62,0.00,,,0.00,Wunderground v.1.15,2013-01-24 00:05:00,
2013-01-23 19:15:00,45.0,33.5,30.23,South,175,0.0,0.0,64,0.00,,,0.00,Wunderground v.1.15,2013-01-24 00:15:00,
2013-01-23 19:25:00,45.2,34.1,30.23,SSW,202,0.0,0.0,65,0.00,,,0.00,Wunderground v.1.15,2013-01-24 00:25:00,
2013-01-23 19:35:00,45.4,35.1,30.22,SSW,205,0.0,0.0,67,0.00,,,0.00,Wunderground v.1.15,2013-01-24 00:35:00,
2013-01-23 19:45:00,45.6,34.5,30.22,SSW,208,0.0,0.0,65,0.00,,,0.00,Wunderground v.1.15,2013-01-24 00:45:00,
2013-01-23 19:55:00,45.6,35.3,30.22,SW,230,0.0,0.0,67,0.00,,,0.00,Wunderground v.1.15,2013-01-24 00:55:00,
2013-01-23 20:00:00,45.7,35.0,30.21,SSW,202,0.0,0.0,66,0.00,,,0.00,Wunderground v.1.15,2013-01-24 01:00:00,
2013-01-23 20:10:00,45.8,35.1,30.21,SSW,204,0.0,0.0,66,0.00,,,0.00,Wunderground v.1.15,2013-01-24 01:10:00,
2013-01-23 20:15:00,45.8,35.5,30.21,SW,217,0.0,0.0,67,0.00,,,0.00,Wunderground v.1.15,2013-01-24 01:15:00,
2013-01-23 20:20:00,45.9,35.9,30.21,SSW,211,0.0,0.0,68,0.00,,,0.00,Wunderground v.1.15,2013-01-24 01:20:00,
2013-01-23 20:30:00,45.9,36.3,30.20,SW,223,0.0,0.0,69,0.00,,,0.00,Wunderground v.1.15,2013-01-24 01:30:00,
2013-01-23 20:35:00,46.0,36.8,30.20,SSW,213,0.0,0.0,70,0.00,,,0.00,Wunderground v.1.15,2013-01-24 01:35:00,
2013-01-23 20:40:00,46.1,36.9,30.21,SSW,205,0.0,0.0,70,0.00,,,0.00,Wunderground v.1.15,2013-01-24 01:40:00,
2013-01-23 20:50:00,46.3,37.0,30.20,SW,221,0.0,0.0,70,0.00,,,0.00,Wunderground v.1.15,2013-01-24 01:50:00,
2013-01-23 21:00:00,46.5,37.2,30.20,SW,215,0.0,0.0,70,0.00,,,0.00,Wunderground v.1.15,2013-01-24 02:00:00,
2013-01-23 21:10:00,46.6,38.1,30.19,SW,214,0.0,0.0,72,0.00,,,0.00,Wunderground v.1.15,2013-01-24 02:10:00,
2013-01-23 21:15:00,46.7,38.1,30.19,SW,218,0.0,0.0,72,0.00,,,0.00,Wunderground v.1.15,2013-01-24 02:15:00,
2013-01-23 21:25:00,47.0,38.8,30.19,SW,226,0.0,0.0,73,0.00,,,0.00,Wunderground v.1.15,2013-01-24 02:25:00,
2013-01-23 21:35:00,46.6,38.1,30.19,WSW,246,0.0,0.0,72,0.00,,,0.00,Wunderground v.1.15,2013-01-24 02:35:00,
2013-01-23 21:45:00,46.0,37.8,30.19,WSW,246,0.0,0.0,73,0.00,,,0.00,Wunderground v.1.15,2013-01-24 02:45:00,
2013-01-23 21:55:00,45.5,37.3,30.19,WSW,246,0.0,0.0,73,0.00,,,0.00,Wunderground v.1.15,2013-01-24 02:55:00,
2013-01-23 22:05:00,45.2,36.7,30.19,WSW,240,0.0,0.0,72,0.00,,,0.00,Wunderground v.1.15,2013-01-24 03:05:00,
2013-01-23 22:15:00,45.1,36.6,30.19,WSW,242,0.0,0.0,72,0.00,,,0.00,Wunderground v.1.15,2013-01-24 03:15:00,
2013-01-23 22:25:00,45.1,36.6,30.19,WSW,247,0.0,0.0,72,0.00,,,0.00,Wunderground v.1.15,2013-01-24 03:25:00,
2013-01-23 22:35:00,45.0,36.9,30.18,WSW,252,0.0,0.0,73,0.00,,,0.00,Wunderground v.1.15,2013-01-24 03:35:00,
2013-01-23 22:45:00,45.1,37.3,30.17,SW,232,0.0,0.0,74,0.00,,,0.00,Wunderground v.1.15,2013-01-24 03:45:00,
2013-01-23 22:55:00,45.1,37.6,30.17,WSW,246,0.0,0.0,75,0.00,,,0.00,Wunderground v.1.15,2013-01-24 03:55:00,
2013-01-23 23:05:00,45.5,38.0,30.16,WSW,252,0.0,0.0,75,0.00,,,0.00,Wunderground v.1.15,2013-01-24 04:05:00,
2013-01-23 23:15:00,45.8,38.0,30.15,WSW,255,0.0,0.0,74,0.00,,,0.00,Wunderground v.1.15,2013-01-24 04:15:00,
2013-01-23 23:25:00,45.7,37.5,30.15,WSW,244,0.0,0.0,73,0.00,,,0.00,Wunderground v.1.15,2013-01-24 04:25:00,
2013-01-23 23:30:00,45.6,37.4,30.15,WSW,257,0.0,0.0,73,0.00,,,0.00,Wunderground v.1.15,2013-01-24 04:30:00,
2013-01-23 23:40:00,45.3,37.2,30.15,WSW,256,0.0,0.0,73,0.00,,,0.00,Wunderground v.1.15,2013-01-24 04:40:00,
2013-01-23 23:50:00,45.1,37.3,30.15,WSW,240,0.0,0.0,74,0.00,,,0.00,Wunderground v.1.15,2013-01-24 04:50:00,